VOBZ/VGA METAR and TAF weather

Enter ICAO airport designator
Station Type Date Time Source
VOBZ METAR 2020/03/29 12:30 UTC NOAA

VOBZ 291230Z 22002KT 6000 NSC 35/20 Q1007 NOSIG


Station Type Date Time Source
VOBZ Decoded METAR 2020/03/29 12:30 UTC NOAA

Vijayawada / Gannavaram, India (VOBZ) 16-32N 080-48E 24M
Mar 29, 2020 - 08:30 AM EDT / 2020.03.29 1230 UTC
Wind: from the SW (220 degrees) at 2 MPH (2 KT):0
Visibility: 3 mile(s):0
Temperature: 95 F (35 C)
Heat index: 99.5 F (37.5 C):1
Dew Point: 68 F (20 C)
Relative Humidity: 41%
Pressure (altimeter): 29.74 in. Hg (1007 hPa)
ob: VOBZ 291230Z 22002KT 6000 NSC 35/20 Q1007 NOSIG
cycle: 12

Station Type Date Time Source
VOBZ TAF 2020/03/06 06:00 UTC NOAA

TAF VOBZ 060500Z 0606/0615 18010KT 5000 HZ FEW015 SCT025
BECMG 0607/0609 16010KT 6000 SCT015 SCT025
BECMG 0611/0613 11007KT 5000 HZ SCT015
BECMG 0613/0614 VRB05KT 3000 BR FEW020
TEMPO 0610/0615 FEW030TCU

Example: see airport list